sensor_id;sensor_type;location;lat;lon;timestamp;pressure;altitude;pressure_sealevel;temperature;humidity
41306;BME280;27051;50.376;19.152;2023-07-13T00:01:31;97822.92;;;21.31;66.43
41306;BME280;27051;50.376;19.152;2023-07-13T00:04:20;97812.29;;;21.28;66.46
41306;BME280;27051;50.376;19.152;2023-07-13T00:07:10;97811.34;;;21.23;67.19
41306;BME280;27051;50.376;19.152;2023-07-13T00:09:39;97817.13;;;21.18;67.07
41306;BME280;27051;50.376;19.152;2023-07-13T00:12:42;97828.75;;;21.19;67.46
41306;BME280;27051;50.376;19.152;2023-07-13T00:15:15;97848.38;;;21.22;67.46
41306;BME280;27051;50.376;19.152;2023-07-13T00:17:42;97864.86;;;21.22;67.52
41306;BME280;27051;50.376;19.152;2023-07-13T00:20:10;97884.23;;;21.27;67.75
41306;BME280;27051;50.376;19.152;2023-07-13T00:22:37;97898.16;;;21.29;67.72
41306;BME280;27051;50.376;19.152;2023-07-13T00:25:04;97891.95;;;21.27;67.91
41306;BME280;27051;50.376;19.152;2023-07-13T00:27:31;97877.31;;;21.24;68.08
41306;BME280;27051;50.376;19.152;2023-07-13T00:29:58;97875.30;;;21.23;68.36
41306;BME280;27051;50.376;19.152;2023-07-13T00:32:45;97877.00;;;21.19;68.21
41306;BME280;27051;50.376;19.152;2023-07-13T00:35:13;97874.14;;;21.18;68.20
41306;BME280;27051;50.376;19.152;2023-07-13T00:37:41;97865.33;;;21.17;68.46
41306;BME280;27051;50.376;19.152;2023-07-13T00:40:11;97865.95;;;21.27;68.59
41306;BME280;27051;50.376;19.152;2023-07-13T00:42:37;97867.84;;;21.31;68.82
41306;BME280;27051;50.376;19.152;2023-07-13T00:48:10;97850.06;;;21.24;69.02
41306;BME280;27051;50.376;19.152;2023-07-13T00:51:20;97831.68;;;21.21;69.15
41306;BME280;27051;50.376;19.152;2023-07-13T00:53:45;97827.73;;;21.19;69.19
41306;BME280;27051;50.376;19.152;2023-07-13T00:56:12;97829.20;;;21.16;69.18
41306;BME280;27051;50.376;19.152;2023-07-13T00:58:39;97821.16;;;21.16;69.36
41306;BME280;27051;50.376;19.152;2023-07-13T01:01:06;97824.41;;;21.16;69.48
41306;BME280;27051;50.376;19.152;2023-07-13T01:03:34;97828.58;;;21.20;69.54
41306;BME280;27051;50.376;19.152;2023-07-13T01:06:01;97834.49;;;21.20;69.48
41306;BME280;27051;50.376;19.152;2023-07-13T01:08:34;97834.81;;;21.16;69.56
41306;BME280;27051;50.376;19.152;2023-07-13T01:11:00;97823.95;;;21.08;69.82
41306;BME280;27051;50.376;19.152;2023-07-13T01:13:27;97817.24;;;21.02;69.93
41306;BME280;27051;50.376;19.152;2023-07-13T01:16:02;97810.60;;;20.97;69.95
41306;BME280;27051;50.376;19.152;2023-07-13T01:18:30;97806.73;;;21.00;70.06
41306;BME280;27051;50.376;19.152;2023-07-13T01:21:03;97799.13;;;21.02;70.34
41306;BME280;27051;50.376;19.152;2023-07-13T01:23:31;97795.70;;;21.07;70.05
41306;BME280;27051;50.376;19.152;2023-07-13T01:26:06;97801.71;;;21.07;70.15
41306;BME280;27051;50.376;19.152;2023-07-13T01:28:33;97805.25;;;21.04;70.22
41306;BME280;27051;50.376;19.152;2023-07-13T01:31:00;97811.66;;;21.00;70.47
41306;BME280;27051;50.376;19.152;2023-07-13T01:33:26;97814.04;;;21.02;70.63
41306;BME280;27051;50.376;19.152;2023-07-13T01:35:53;97811.48;;;21.01;70.62
41306;BME280;27051;50.376;19.152;2023-07-13T01:38:22;97817.73;;;21.01;70.59
41306;BME280;27051;50.376;19.152;2023-07-13T01:41:13;97820.56;;;20.99;70.60
41306;BME280;27051;50.376;19.152;2023-07-13T01:43:39;97808.76;;;20.95;70.73
41306;BME280;27051;50.376;19.152;2023-07-13T01:46:05;97796.69;;;20.98;70.79
41306;BME280;27051;50.376;19.152;2023-07-13T01:48:50;97802.05;;;20.95;70.65
41306;BME280;27051;50.376;19.152;2023-07-13T01:51:19;97811.08;;;20.96;70.73
41306;BME280;27051;50.376;19.152;2023-07-13T01:53:46;97801.02;;;20.92;70.96
41306;BME280;27051;50.376;19.152;2023-07-13T01:56:13;97796.53;;;20.93;70.97
41306;BME280;27051;50.376;19.152;2023-07-13T01:58:40;97801.30;;;20.93;71.02
41306;BME280;27051;50.376;19.152;2023-07-13T02:01:06;97809.41;;;20.93;71.07
41306;BME280;27051;50.376;19.152;2023-07-13T02:03:33;97805.83;;;20.93;71.03
41306;BME280;27051;50.376;19.152;2023-07-13T02:06:00;97797.95;;;20.98;71.04
41306;BME280;27051;50.376;19.152;2023-07-13T02:08:26;97793.16;;;20.99;71.04
41306;BME280;27051;50.376;19.152;2023-07-13T02:10:53;97778.02;;;20.99;71.02
41306;BME280;27051;50.376;19.152;2023-07-13T02:13:19;97767.97;;;20.93;71.23
41306;BME280;27051;50.376;19.152;2023-07-13T02:15:46;97777.34;;;20.93;71.24
41306;BME280;27051;50.376;19.152;2023-07-13T02:18:16;97797.38;;;20.90;71.16
41306;BME280;27051;50.376;19.152;2023-07-13T02:20:43;97807.56;;;20.87;71.25
41306;BME280;27051;50.376;19.152;2023-07-13T02:23:12;97805.53;;;20.82;71.34
41306;BME280;27051;50.376;19.152;2023-07-13T02:25:39;97807.80;;;20.87;71.41
41306;BME280;27051;50.376;19.152;2023-07-13T02:28:05;97783.83;;;20.88;71.65
41306;BME280;27051;50.376;19.152;2023-07-13T02:30:34;97770.67;;;20.91;71.71
41306;BME280;27051;50.376;19.152;2023-07-13T02:33:01;97777.77;;;20.82;71.58
41306;BME280;27051;50.376;19.152;2023-07-13T02:35:28;97779.02;;;20.77;71.82
41306;BME280;27051;50.376;19.152;2023-07-13T02:38:05;97762.40;;;20.76;71.89
41306;BME280;27051;50.376;19.152;2023-07-13T02:40:32;97728.53;;;20.77;71.89
41306;BME280;27051;50.376;19.152;2023-07-13T02:42:59;97708.26;;;20.75;71.93
41306;BME280;27051;50.376;19.152;2023-07-13T02:45:26;97717.06;;;20.73;72.22
41306;BME280;27051;50.376;19.152;2023-07-13T02:47:54;97736.52;;;20.65;72.11
41306;BME280;27051;50.376;19.152;2023-07-13T02:50:26;97738.23;;;20.61;72.40
41306;BME280;27051;50.376;19.152;2023-07-13T02:52:53;97711.45;;;20.57;72.87
41306;BME280;27051;50.376;19.152;2023-07-13T02:55:19;97707.73;;;20.44;72.81
41306;BME280;27051;50.376;19.152;2023-07-13T02:57:46;97726.60;;;20.39;72.76
41306;BME280;27051;50.376;19.152;2023-07-13T03:00:13;97729.39;;;20.35;72.79
41306;BME280;27051;50.376;19.152;2023-07-13T03:02:40;97727.10;;;20.37;72.92
41306;BME280;27051;50.376;19.152;2023-07-13T03:05:07;97738.89;;;20.41;73.00
41306;BME280;27051;50.376;19.152;2023-07-13T03:07:33;97752.30;;;20.47;73.03
41306;BME280;27051;50.376;19.152;2023-07-13T03:10:00;97774.60;;;20.53;73.16
41306;BME280;27051;50.376;19.152;2023-07-13T03:12:27;97788.55;;;20.60;73.17
41306;BME280;27051;50.376;19.152;2023-07-13T03:14:57;97797.92;;;20.65;73.00
41306;BME280;27051;50.376;19.152;2023-07-13T03:17:24;97806.63;;;20.66;73.19
41306;BME280;27051;50.376;19.152;2023-07-13T03:19:53;97813.99;;;20.64;73.33
41306;BME280;27051;50.376;19.152;2023-07-13T03:22:19;97820.35;;;20.67;73.25
41306;BME280;27051;50.376;19.152;2023-07-13T03:24:47;97820.52;;;20.66;72.99
41306;BME280;27051;50.376;19.152;2023-07-13T03:27:14;97826.98;;;20.68;73.33
41306;BME280;27051;50.376;19.152;2023-07-13T03:29:41;97829.31;;;20.73;73.34
41306;BME280;27051;50.376;19.152;2023-07-13T03:34:52;97837.58;;;20.89;73.36
41306;BME280;27051;50.376;19.152;2023-07-13T03:37:18;97840.19;;;20.92;73.45
41306;BME280;27051;50.376;19.152;2023-07-13T03:39:52;97836.14;;;20.97;73.42
41306;BME280;27051;50.376;19.152;2023-07-13T03:42:19;97831.22;;;20.96;73.42
41306;BME280;27051;50.376;19.152;2023-07-13T03:44:49;97829.06;;;21.00;73.53
41306;BME280;27051;50.376;19.152;2023-07-13T03:47:16;97828.67;;;21.05;73.38
41306;BME280;27051;50.376;19.152;2023-07-13T03:49:43;97829.54;;;21.09;73.47
41306;BME280;27051;50.376;19.152;2023-07-13T03:52:09;97825.88;;;21.13;73.38
41306;BME280;27051;50.376;19.152;2023-07-13T03:54:36;97837.69;;;21.22;73.23
41306;BME280;27051;50.376;19.152;2023-07-13T03:57:03;97842.48;;;21.24;73.34
41306;BME280;27051;50.376;19.152;2023-07-13T03:59:32;97840.32;;;21.27;73.16
41306;BME280;27051;50.376;19.152;2023-07-13T04:01:58;97844.83;;;21.24;73.36
41306;BME280;27051;50.376;19.152;2023-07-13T04:04:35;97844.54;;;21.28;73.40
41306;BME280;27051;50.376;19.152;2023-07-13T04:07:04;97844.16;;;21.31;73.27
41306;BME280;27051;50.376;19.152;2023-07-13T04:09:31;97845.86;;;21.32;73.21
41306;BME280;27051;50.376;19.152;2023-07-13T04:11:57;97846.77;;;21.33;73.32
41306;BME280;27051;50.376;19.152;2023-07-13T04:14:24;97849.55;;;21.36;73.08
41306;BME280;27051;50.376;19.152;2023-07-13T04:16:51;97854.46;;;21.37;73.07
41306;BME280;27051;50.376;19.152;2023-07-13T04:19:20;97862.92;;;21.34;72.87
41306;BME280;27051;50.376;19.152;2023-07-13T04:21:47;97865.21;;;21.24;73.08
41306;BME280;27051;50.376;19.152;2023-07-13T04:26:51;97867.52;;;21.36;73.26
41306;BME280;27051;50.376;19.152;2023-07-13T04:29:17;97865.72;;;21.42;73.28
41306;BME280;27051;50.376;19.152;2023-07-13T04:31:44;97872.92;;;21.50;73.19
41306;BME280;27051;50.376;19.152;2023-07-13T04:34:10;97872.67;;;21.59;73.33
41306;BME280;27051;50.376;19.152;2023-07-13T04:36:37;97876.22;;;21.67;73.21
41306;BME280;27051;50.376;19.152;2023-07-13T04:39:04;97872.47;;;21.67;73.29
41306;BME280;27051;50.376;19.152;2023-07-13T04:41:30;97867.45;;;21.71;73.15
41306;BME280;27051;50.376;19.152;2023-07-13T04:43:59;97868.13;;;21.81;73.22
41306;BME280;27051;50.376;19.152;2023-07-13T04:46:26;97857.08;;;21.88;73.08
41306;BME280;27051;50.376;19.152;2023-07-13T04:48:53;97851.38;;;21.92;73.04
41306;BME280;27051;50.376;19.152;2023-07-13T04:51:20;97845.45;;;22.03;73.16
41306;BME280;27051;50.376;19.152;2023-07-13T04:53:46;97841.25;;;22.10;73.00
41306;BME280;27051;50.376;19.152;2023-07-13T04:56:13;97832.86;;;22.15;72.77
41306;BME280;27051;50.376;19.152;2023-07-13T04:58:42;97826.30;;;22.07;72.69
41306;BME280;27051;50.376;19.152;2023-07-13T05:01:16;97825.77;;;22.09;72.84
41306;BME280;27051;50.376;19.152;2023-07-13T05:03:43;97830.49;;;22.12;72.57
41306;BME280;27051;50.376;19.152;2023-07-13T05:06:09;97833.91;;;22.14;72.58
41306;BME280;27051;50.376;19.152;2023-07-13T05:08:36;97830.91;;;22.14;72.59
41306;BME280;27051;50.376;19.152;2023-07-13T05:11:04;97828.79;;;22.20;72.50
41306;BME280;27051;50.376;19.152;2023-07-13T05:13:32;97823.06;;;22.20;72.81
41306;BME280;27051;50.376;19.152;2023-07-13T05:16:01;97822.75;;;22.28;72.82
41306;BME280;27051;50.376;19.152;2023-07-13T05:18:29;97825.23;;;22.28;72.78
41306;BME280;27051;50.376;19.152;2023-07-13T05:21:04;97828.10;;;22.34;72.70
41306;BME280;27051;50.376;19.152;2023-07-13T05:23:39;97832.20;;;22.36;72.69
41306;BME280;27051;50.376;19.152;2023-07-13T05:26:06;97829.05;;;22.41;72.75
41306;BME280;27051;50.376;19.152;2023-07-13T05:28:32;97832.36;;;22.47;72.70
41306;BME280;27051;50.376;19.152;2023-07-13T05:30:59;97833.26;;;22.63;72.72
41306;BME280;27051;50.376;19.152;2023-07-13T05:33:26;97831.93;;;22.70;72.28
41306;BME280;27051;50.376;19.152;2023-07-13T05:35:54;97831.55;;;22.76;72.06
41306;BME280;27051;50.376;19.152;2023-07-13T05:38:20;97831.73;;;22.79;71.91
41306;BME280;27051;50.376;19.152;2023-07-13T05:40:47;97838.80;;;22.81;71.73
41306;BME280;27051;50.376;19.152;2023-07-13T05:43:23;97836.11;;;22.89;71.84
41306;BME280;27051;50.376;19.152;2023-07-13T05:45:54;97828.56;;;23.01;71.59
41306;BME280;27051;50.376;19.152;2023-07-13T05:48:21;97829.48;;;23.12;71.21
41306;BME280;27051;50.376;19.152;2023-07-13T05:50:48;97831.77;;;23.21;70.97
41306;BME280;27051;50.376;19.152;2023-07-13T05:53:14;97833.77;;;23.31;71.12
41306;BME280;27051;50.376;19.152;2023-07-13T05:55:46;97835.45;;;23.42;70.75
41306;BME280;27051;50.376;19.152;2023-07-13T05:58:13;97833.42;;;23.51;69.99
41306;BME280;27051;50.376;19.152;2023-07-13T06:00:40;97827.25;;;23.53;69.93
41306;BME280;27051;50.376;19.152;2023-07-13T06:03:07;97828.22;;;23.58;69.82
41306;BME280;27051;50.376;19.152;2023-07-13T06:05:37;97821.08;;;23.65;69.51
41306;BME280;27051;50.376;19.152;2023-07-13T06:08:07;97819.70;;;23.76;69.32
41306;BME280;27051;50.376;19.152;2023-07-13T06:10:35;97818.41;;;23.82;68.91
41306;BME280;27051;50.376;19.152;2023-07-13T06:13:02;97821.81;;;23.87;68.67
41306;BME280;27051;50.376;19.152;2023-07-13T06:15:28;97818.35;;;23.88;68.52
41306;BME280;27051;50.376;19.152;2023-07-13T06:17:55;97810.02;;;23.86;68.56
41306;BME280;27051;50.376;19.152;2023-07-13T06:20:22;97815.00;;;23.90;68.42
41306;BME280;27051;50.376;19.152;2023-07-13T06:22:48;97814.53;;;23.98;68.08
41306;BME280;27051;50.376;19.152;2023-07-13T06:25:24;97816.24;;;24.07;67.93
41306;BME280;27051;50.376;19.152;2023-07-13T06:27:50;97818.27;;;24.10;67.41
41306;BME280;27051;50.376;19.152;2023-07-13T06:30:17;97813.61;;;24.17;67.37
41306;BME280;27051;50.376;19.152;2023-07-13T06:32:43;97812.09;;;24.29;67.56
41306;BME280;27051;50.376;19.152;2023-07-13T06:35:10;97805.88;;;24.36;67.16
41306;BME280;27051;50.376;19.152;2023-07-13T06:37:36;97808.04;;;24.43;66.27
41306;BME280;27051;50.376;19.152;2023-07-13T06:40:03;97806.65;;;24.56;66.25
41306;BME280;27051;50.376;19.152;2023-07-13T06:42:30;97806.49;;;24.71;65.85
41306;BME280;27051;50.376;19.152;2023-07-13T06:44:56;97807.09;;;24.83;65.91
41306;BME280;27051;50.376;19.152;2023-07-13T06:47:23;97812.80;;;24.95;66.08
41306;BME280;27051;50.376;19.152;2023-07-13T06:49:50;97814.85;;;25.07;65.90
41306;BME280;27051;50.376;19.152;2023-07-13T06:52:16;97819.72;;;25.15;65.69
41306;BME280;27051;50.376;19.152;2023-07-13T06:54:43;97814.33;;;25.24;65.35
41306;BME280;27051;50.376;19.152;2023-07-13T06:57:09;97816.14;;;25.33;64.57
41306;BME280;27051;50.376;19.152;2023-07-13T06:59:36;97816.63;;;25.40;64.62
41306;BME280;27051;50.376;19.152;2023-07-13T07:02:02;97816.62;;;25.44;64.32
41306;BME280;27051;50.376;19.152;2023-07-13T07:04:29;97821.71;;;25.54;63.63
41306;BME280;27051;50.376;19.152;2023-07-13T07:06:55;97823.88;;;25.64;63.16
41306;BME280;27051;50.376;19.152;2023-07-13T07:09:22;97827.54;;;25.74;63.07
41306;BME280;27051;50.376;19.152;2023-07-13T07:11:48;97832.95;;;25.81;62.70
41306;BME280;27051;50.376;19.152;2023-07-13T07:14:15;97834.23;;;25.84;62.81
41306;BME280;27051;50.376;19.152;2023-07-13T07:16:41;97840.86;;;25.87;62.74
41306;BME280;27051;50.376;19.152;2023-07-13T07:19:08;97841.49;;;25.94;62.40
41306;BME280;27051;50.376;19.152;2023-07-13T07:21:35;97843.84;;;25.97;62.07
41306;BME280;27051;50.376;19.152;2023-07-13T07:24:01;97850.93;;;25.96;61.37
41306;BME280;27051;50.376;19.152;2023-07-13T07:26:28;97854.79;;;25.92;60.36
41306;BME280;27051;50.376;19.152;2023-07-13T07:28:54;97850.95;;;25.87;60.04
41306;BME280;27051;50.376;19.152;2023-07-13T07:31:21;97860.65;;;25.86;59.76
41306;BME280;27051;50.376;19.152;2023-07-13T07:33:48;97862.41;;;25.90;59.58
41306;BME280;27051;50.376;19.152;2023-07-13T07:36:15;97863.77;;;25.89;59.16
41306;BME280;27051;50.376;19.152;2023-07-13T07:38:42;97862.38;;;25.84;58.97
41306;BME280;27051;50.376;19.152;2023-07-13T07:41:09;97859.45;;;25.82;59.20
41306;BME280;27051;50.376;19.152;2023-07-13T07:43:36;97861.95;;;25.82;58.94
41306;BME280;27051;50.376;19.152;2023-07-13T07:46:03;97866.61;;;25.82;59.48
41306;BME280;27051;50.376;19.152;2023-07-13T07:48:31;97870.53;;;25.82;58.75
41306;BME280;27051;50.376;19.152;2023-07-13T07:50:57;97873.23;;;25.79;59.11
41306;BME280;27051;50.376;19.152;2023-07-13T07:53:24;97874.32;;;25.79;59.09
41306;BME280;27051;50.376;19.152;2023-07-13T07:55:51;97874.21;;;25.77;59.10
41306;BME280;27051;50.376;19.152;2023-07-13T07:58:17;97876.24;;;25.73;58.88
41306;BME280;27051;50.376;19.152;2023-07-13T08:00:44;97873.62;;;25.67;58.75
41306;BME280;27051;50.376;19.152;2023-07-13T08:03:10;97880.30;;;25.58;59.12
41306;BME280;27051;50.376;19.152;2023-07-13T08:05:37;97886.91;;;25.46;58.94
41306;BME280;27051;50.376;19.152;2023-07-13T08:08:03;97887.84;;;25.35;58.78
41306;BME280;27051;50.376;19.152;2023-07-13T08:10:30;97887.44;;;25.25;58.89
41306;BME280;27051;50.376;19.152;2023-07-13T08:12:57;97878.60;;;25.08;58.97
41306;BME280;27051;50.376;19.152;2023-07-13T08:15:23;97868.74;;;25.02;59.02
41306;BME280;27051;50.376;19.152;2023-07-13T08:17:50;97865.09;;;25.14;58.85
41306;BME280;27051;50.376;19.152;2023-07-13T08:20:17;97862.35;;;25.28;58.90
41306;BME280;27051;50.376;19.152;2023-07-13T08:22:43;97860.13;;;25.48;59.11
41306;BME280;27051;50.376;19.152;2023-07-13T08:25:10;97854.40;;;25.66;58.48
41306;BME280;27051;50.376;19.152;2023-07-13T08:27:36;97858.02;;;25.90;58.67
41306;BME280;27051;50.376;19.152;2023-07-13T08:30:04;97849.64;;;26.12;58.53
41306;BME280;27051;50.376;19.152;2023-07-13T08:32:31;97844.94;;;26.31;58.43
41306;BME280;27051;50.376;19.152;2023-07-13T08:34:57;97840.80;;;26.47;57.87
41306;BME280;27051;50.376;19.152;2023-07-13T08:37:24;97839.61;;;26.64;57.73
41306;BME280;27051;50.376;19.152;2023-07-13T08:39:50;97835.84;;;26.82;57.46
41306;BME280;27051;50.376;19.152;2023-07-13T08:42:44;97839.25;;;26.95;57.14
41306;BME280;27051;50.376;19.152;2023-07-13T08:45:23;97847.84;;;27.16;56.71
41306;BME280;27051;50.376;19.152;2023-07-13T08:48:17;97850.05;;;27.25;56.05
41306;BME280;27051;50.376;19.152;2023-07-13T08:51:16;97845.73;;;27.31;56.20
41306;BME280;27051;50.376;19.152;2023-07-13T08:54:02;97846.39;;;27.39;55.80
41306;BME280;27051;50.376;19.152;2023-07-13T08:56:31;97845.69;;;27.50;56.12
41306;BME280;27051;50.376;19.152;2023-07-13T08:59:02;97846.58;;;27.61;55.77
41306;BME280;27051;50.376;19.152;2023-07-13T09:02:00;97846.77;;;27.73;55.45
41306;BME280;27051;50.376;19.152;2023-07-13T09:04:42;97847.02;;;27.89;54.95
41306;BME280;27051;50.376;19.152;2023-07-13T09:07:24;97849.66;;;28.02;54.61
41306;BME280;27051;50.376;19.152;2023-07-13T09:10:14;97849.67;;;28.08;54.19
41306;BME280;27051;50.376;19.152;2023-07-13T09:15:40;97854.02;;;28.08;54.01
41306;BME280;27051;50.376;19.152;2023-07-13T09:18:15;97852.73;;;28.12;53.60
41306;BME280;27051;50.376;19.152;2023-07-13T09:20:48;97856.25;;;28.04;53.62
41306;BME280;27051;50.376;19.152;2023-07-13T09:23:20;97858.17;;;27.91;53.63
41306;BME280;27051;50.376;19.152;2023-07-13T09:25:50;97862.98;;;27.76;53.38
41306;BME280;27051;50.376;19.152;2023-07-13T09:28:26;97861.39;;;27.52;53.55
41306;BME280;27051;50.376;19.152;2023-07-13T09:33:34;97861.75;;;27.08;53.90
41306;BME280;27051;50.376;19.152;2023-07-13T09:36:01;97868.53;;;26.84;53.54
41306;BME280;27051;50.376;19.152;2023-07-13T09:38:29;97872.20;;;26.44;53.67
41306;BME280;27051;50.376;19.152;2023-07-13T09:41:19;97878.16;;;26.13;54.10
41306;BME280;27051;50.376;19.152;2023-07-13T09:46:40;97884.77;;;25.72;54.72
41306;BME280;27051;50.376;19.152;2023-07-13T09:49:10;97887.19;;;25.59;54.60
41306;BME280;27051;50.376;19.152;2023-07-13T09:51:40;97888.23;;;25.47;54.92
41306;BME280;27051;50.376;19.152;2023-07-13T09:54:18;97896.34;;;25.32;54.55
41306;BME280;27051;50.376;19.152;2023-07-13T09:56:45;97903.58;;;25.11;54.71
41306;BME280;27051;50.376;19.152;2023-07-13T09:59:22;97915.32;;;24.84;54.65
41306;BME280;27051;50.376;19.152;2023-07-13T10:01:50;97921.39;;;24.51;54.30
41306;BME280;27051;50.376;19.152;2023-07-13T10:04:18;97929.73;;;24.22;54.61
41306;BME280;27051;50.376;19.152;2023-07-13T10:06:47;97933.90;;;24.01;55.03
41306;BME280;27051;50.376;19.152;2023-07-13T10:09:17;97939.23;;;23.86;54.97
41306;BME280;27051;50.376;19.152;2023-07-13T10:11:44;97941.52;;;23.62;55.01
41306;BME280;27051;50.376;19.152;2023-07-13T10:14:14;97949.18;;;23.41;55.07
41306;BME280;27051;50.376;19.152;2023-07-13T10:16:44;97957.23;;;23.14;55.30
41306;BME280;27051;50.376;19.152;2023-07-13T10:19:26;97966.27;;;22.83;55.58
41306;BME280;27051;50.376;19.152;2023-07-13T10:22:14;97973.82;;;22.58;55.95
41306;BME280;27051;50.376;19.152;2023-07-13T10:24:43;97984.05;;;22.39;56.36
41306;BME280;27051;50.376;19.152;2023-07-13T10:27:20;97984.00;;;22.07;57.02
41306;BME280;27051;50.376;19.152;2023-07-13T10:29:53;97991.73;;;21.81;57.82
41306;BME280;27051;50.376;19.152;2023-07-13T10:32:29;97992.45;;;21.55;57.86
41306;BME280;27051;50.376;19.152;2023-07-13T10:34:56;98001.39;;;21.41;58.35
41306;BME280;27051;50.376;19.152;2023-07-13T10:37:26;98000.98;;;21.21;58.99
41306;BME280;27051;50.376;19.152;2023-07-13T10:40:14;98000.64;;;21.05;59.23
41306;BME280;27051;50.376;19.152;2023-07-13T10:42:45;98006.95;;;20.82;59.43
41306;BME280;27051;50.376;19.152;2023-07-13T10:45:22;98007.39;;;20.57;59.91
41306;BME280;27051;50.376;19.152;2023-07-13T10:47:53;98014.53;;;20.38;59.94
41306;BME280;27051;50.376;19.152;2023-07-13T10:50:23;98011.60;;;20.27;60.30
41306;BME280;27051;50.376;19.152;2023-07-13T10:52:53;98009.48;;;20.21;60.79
41306;BME280;27051;50.376;19.152;2023-07-13T10:55:40;98020.86;;;20.28;60.92
41306;BME280;27051;50.376;19.152;2023-07-13T11:01:17;98019.89;;;20.26;61.28
41306;BME280;27051;50.376;19.152;2023-07-13T11:03:54;98006.20;;;20.12;61.77
41306;BME280;27051;50.376;19.152;2023-07-13T11:08:58;97999.11;;;20.13;62.08
41306;BME280;27051;50.376;19.152;2023-07-13T11:11:50;98005.19;;;20.21;62.12
41306;BME280;27051;50.376;19.152;2023-07-13T11:17:37;98029.05;;;20.20;62.51
41306;BME280;27051;50.376;19.152;2023-07-13T11:20:21;98029.75;;;20.27;62.75
41306;BME280;27051;50.376;19.152;2023-07-13T11:23:09;98030.65;;;20.24;62.95
41306;BME280;27051;50.376;19.152;2023-07-13T11:25:40;98027.29;;;20.26;63.15
41306;BME280;27051;50.376;19.152;2023-07-13T11:33:28;98028.27;;;20.36;63.46
41306;BME280;27051;50.376;19.152;2023-07-13T11:36:16;98028.35;;;20.43;63.62
41306;BME280;27051;50.376;19.152;2023-07-13T11:38:47;98027.29;;;20.41;63.62
41306;BME280;27051;50.376;19.152;2023-07-13T11:41:25;98026.15;;;20.44;64.08
41306;BME280;27051;50.376;19.152;2023-07-13T11:43:54;98021.67;;;20.55;64.06
41306;BME280;27051;50.376;19.152;2023-07-13T11:46:24;98020.29;;;20.62;64.10
41306;BME280;27051;50.376;19.152;2023-07-13T11:49:01;98024.56;;;20.78;64.01
41306;BME280;27051;50.376;19.152;2023-07-13T11:51:35;98031.98;;;20.90;64.05
41306;BME280;27051;50.376;19.152;2023-07-13T11:54:06;98027.98;;;20.92;63.97
41306;BME280;27051;50.376;19.152;2023-07-13T11:56:33;98029.77;;;20.92;64.00
41306;BME280;27051;50.376;19.152;2023-07-13T11:59:16;98020.30;;;20.81;64.09
41306;BME280;27051;50.376;19.152;2023-07-13T12:01:50;98019.23;;;20.86;64.02
41306;BME280;27051;50.376;19.152;2023-07-13T12:04:30;98017.40;;;20.88;64.05
41306;BME280;27051;50.376;19.152;2023-07-13T12:07:06;98010.87;;;20.92;64.40
41306;BME280;27051;50.376;19.152;2023-07-13T12:09:34;98006.18;;;21.11;64.63
41306;BME280;27051;50.376;19.152;2023-07-13T12:12:01;98004.34;;;21.30;64.58
41306;BME280;27051;50.376;19.152;2023-07-13T12:14:28;98010.03;;;21.45;64.37
41306;BME280;27051;50.376;19.152;2023-07-13T12:17:38;98011.33;;;21.51;64.10
41306;BME280;27051;50.376;19.152;2023-07-13T12:19:57;98015.89;;;21.55;64.34
41306;BME280;27051;50.376;19.152;2023-07-13T12:22:24;98019.70;;;21.65;64.22
41306;BME280;27051;50.376;19.152;2023-07-13T12:24:52;98019.75;;;21.82;63.91
41306;BME280;27051;50.376;19.152;2023-07-13T12:27:26;98023.95;;;22.03;63.90
41306;BME280;27051;50.376;19.152;2023-07-13T12:30:43;98025.96;;;22.18;63.50
41306;BME280;27051;50.376;19.152;2023-07-13T12:32:58;98014.77;;;22.42;63.49
41306;BME280;27051;50.376;19.152;2023-07-13T12:35:27;98016.96;;;22.62;62.89
41306;BME280;27051;50.376;19.152;2023-07-13T12:37:54;98025.73;;;22.81;62.65
41306;BME280;27051;50.376;19.152;2023-07-13T12:40:37;98024.20;;;23.03;62.31
41306;BME280;27051;50.376;19.152;2023-07-13T12:43:04;98034.27;;;23.45;62.22
41306;BME280;27051;50.376;19.152;2023-07-13T12:45:31;98039.58;;;23.83;61.94
41306;BME280;27051;50.376;19.152;2023-07-13T12:48:17;98040.70;;;24.23;61.58
41306;BME280;27051;50.376;19.152;2023-07-13T12:50:47;98050.80;;;25.23;61.03
41306;BME280;27051;50.376;19.152;2023-07-13T12:53:19;98039.76;;;25.86;60.53
41306;BME280;27051;50.376;19.152;2023-07-13T12:55:56;98039.13;;;26.14;59.51
41306;BME280;27051;50.376;19.152;2023-07-13T12:58:40;98044.27;;;26.04;59.38
41306;BME280;27051;50.376;19.152;2023-07-13T13:01:17;98048.21;;;25.79;58.83
41306;BME280;27051;50.376;19.152;2023-07-13T13:03:49;98045.27;;;25.50;58.90
41306;BME280;27051;50.376;19.152;2023-07-13T13:06:25;98046.39;;;25.29;59.12
41306;BME280;27051;50.376;19.152;2023-07-13T13:08:54;98044.60;;;25.08;59.37
41306;BME280;27051;50.376;19.152;2023-07-13T13:11:23;98051.05;;;25.00;59.05
41306;BME280;27051;50.376;19.152;2023-07-13T13:13:50;98059.27;;;24.96;58.83
41306;BME280;27051;50.376;19.152;2023-07-13T13:16:26;98062.38;;;24.82;58.58
41306;BME280;27051;50.376;19.152;2023-07-13T13:18:56;98063.41;;;24.88;58.52
41306;BME280;27051;50.376;19.152;2023-07-13T13:21:24;98061.64;;;25.03;58.36
41306;BME280;27051;50.376;19.152;2023-07-13T13:23:51;98058.67;;;25.14;58.45
41306;BME280;27051;50.376;19.152;2023-07-13T13:26:23;98065.41;;;25.14;58.70
41306;BME280;27051;50.376;19.152;2023-07-13T13:28:50;98069.00;;;25.15;58.27
41306;BME280;27051;50.376;19.152;2023-07-13T13:31:17;98077.25;;;25.16;57.89
41306;BME280;27051;50.376;19.152;2023-07-13T13:33:45;98078.11;;;25.30;57.95
41306;BME280;27051;50.376;19.152;2023-07-13T13:36:22;98078.18;;;26.09;57.43
41306;BME280;27051;50.376;19.152;2023-07-13T13:38:50;98076.27;;;27.44;56.34